sensor_id;sensor_type;location;lat;lon;timestamp;pressure;altitude;pressure_sealevel;temperature;humidity
30073;BME280;16897;52.422;13.678;2023-08-24T00:02:04;101491.53;;;22.06;43.50
30073;BME280;16897;52.422;13.678;2023-08-24T00:06:05;101489.31;;;22.01;43.78
30073;BME280;16897;52.422;13.678;2023-08-24T00:10:08;101477.13;;;21.89;43.67
30073;BME280;16897;52.422;13.678;2023-08-24T00:14:09;101486.81;;;21.90;43.60
30073;BME280;16897;52.422;13.678;2023-08-24T00:18:11;101479.38;;;21.84;43.86
30073;BME280;16897;52.422;13.678;2023-08-24T00:22:12;101482.47;;;21.79;43.83
30073;BME280;16897;52.422;13.678;2023-08-24T00:26:14;101469.28;;;21.68;43.60
30073;BME280;16897;52.422;13.678;2023-08-24T00:30:18;101462.72;;;21.53;43.91
30073;BME280;16897;52.422;13.678;2023-08-24T00:34:20;101464.81;;;21.59;43.69
30073;BME280;16897;52.422;13.678;2023-08-24T00:38:22;101460.59;;;21.56;43.81
30073;BME280;16897;52.422;13.678;2023-08-24T00:42:24;101434.38;;;21.32;43.83
30073;BME280;16897;52.422;13.678;2023-08-24T00:46:26;101464.94;;;21.48;44.18
30073;BME280;16897;52.422;13.678;2023-08-24T00:50:29;101465.75;;;21.38;43.90
30073;BME280;16897;52.422;13.678;2023-08-24T00:54:31;101460.84;;;21.34;44.28
30073;BME280;16897;52.422;13.678;2023-08-24T00:58:33;101451.44;;;21.20;43.96
30073;BME280;16897;52.422;13.678;2023-08-24T01:02:35;101468.91;;;21.23;44.23
30073;BME280;16897;52.422;13.678;2023-08-24T01:06:37;101471.81;;;21.19;44.17
30073;BME280;16897;52.422;13.678;2023-08-24T01:10:45;101466.09;;;21.14;44.18
30073;BME280;16897;52.422;13.678;2023-08-24T01:15:04;101482.31;;;21.21;44.23
30073;BME280;16897;52.422;13.678;2023-08-24T01:23:41;101470.69;;;21.12;44.24
30073;BME280;16897;52.422;13.678;2023-08-24T01:27:44;101462.84;;;21.01;44.31
30073;BME280;16897;52.422;13.678;2023-08-24T01:31:48;101428.22;;;20.72;44.39
30073;BME280;16897;52.422;13.678;2023-08-24T01:35:50;101466.28;;;20.92;44.31
30073;BME280;16897;52.422;13.678;2023-08-24T01:40:25;101463.19;;;20.87;44.60
30073;BME280;16897;52.422;13.678;2023-08-24T01:44:29;101462.75;;;20.82;44.27
30073;BME280;16897;52.422;13.678;2023-08-24T01:48:31;101459.78;;;20.75;45.00
30073;BME280;16897;52.422;13.678;2023-08-24T01:52:34;101440.66;;;20.71;44.80
30073;BME280;16897;52.422;13.678;2023-08-24T01:56:37;101443.81;;;20.65;44.64
30073;BME280;16897;52.422;13.678;2023-08-24T02:00:39;101447.19;;;20.67;44.89
30073;BME280;16897;52.422;13.678;2023-08-24T02:04:41;101453.88;;;20.62;44.69
30073;BME280;16897;52.422;13.678;2023-08-24T02:08:42;101452.75;;;20.64;44.95
30073;BME280;16897;52.422;13.678;2023-08-24T02:12:46;101442.09;;;20.54;44.54
30073;BME280;16897;52.422;13.678;2023-08-24T02:16:48;101430.31;;;20.47;44.92
30073;BME280;16897;52.422;13.678;2023-08-24T02:20:49;101448.16;;;20.45;44.82
30073;BME280;16897;52.422;13.678;2023-08-24T02:24:52;101450.09;;;20.43;45.16
30073;BME280;16897;52.422;13.678;2023-08-24T02:28:54;101432.00;;;20.27;44.86
30073;BME280;16897;52.422;13.678;2023-08-24T02:32:55;101453.53;;;20.34;45.02
30073;BME280;16897;52.422;13.678;2023-08-24T02:36:57;101444.16;;;20.30;45.32
30073;BME280;16897;52.422;13.678;2023-08-24T02:41:05;101445.25;;;20.27;45.28
30073;BME280;16897;52.422;13.678;2023-08-24T02:45:08;101448.88;;;20.26;45.20
30073;BME280;16897;52.422;13.678;2023-08-24T02:49:10;101438.34;;;20.15;44.90
30073;BME280;16897;52.422;13.678;2023-08-24T02:53:12;101421.97;;;20.10;44.93
30073;BME280;16897;52.422;13.678;2023-08-24T02:57:13;101442.66;;;20.16;45.35
30073;BME280;16897;52.422;13.678;2023-08-24T03:01:15;101441.00;;;20.15;45.35
30073;BME280;16897;52.422;13.678;2023-08-24T03:05:16;101440.41;;;20.11;45.20
30073;BME280;16897;52.422;13.678;2023-08-24T03:09:18;101449.91;;;20.14;45.66
30073;BME280;16897;52.422;13.678;2023-08-24T03:13:20;101438.16;;;20.07;45.44
30073;BME280;16897;52.422;13.678;2023-08-24T03:17:22;101445.59;;;20.13;45.37
30073;BME280;16897;52.422;13.678;2023-08-24T03:21:24;101423.72;;;20.00;45.53
30073;BME280;16897;52.422;13.678;2023-08-24T03:25:26;101444.88;;;20.11;45.51
30073;BME280;16897;52.422;13.678;2023-08-24T03:29:27;101435.50;;;20.07;45.74
30073;BME280;16897;52.422;13.678;2023-08-24T03:33:29;101445.69;;;20.11;45.42
30073;BME280;16897;52.422;13.678;2023-08-24T03:37:32;101442.94;;;20.13;45.57
30073;BME280;16897;52.422;13.678;2023-08-24T03:41:34;101432.97;;;20.05;45.84
30073;BME280;16897;52.422;13.678;2023-08-24T03:45:36;101436.06;;;20.10;45.88
30073;BME280;16897;52.422;13.678;2023-08-24T03:49:42;101442.09;;;20.13;45.73
30073;BME280;16897;52.422;13.678;2023-08-24T03:53:44;101414.78;;;20.01;45.98
30073;BME280;16897;52.422;13.678;2023-08-24T03:57:46;101425.84;;;20.06;45.91
30073;BME280;16897;52.422;13.678;2023-08-24T04:01:48;101418.31;;;20.01;46.00
30073;BME280;16897;52.422;13.678;2023-08-24T04:05:49;101429.66;;;20.13;45.92
30073;BME280;16897;52.422;13.678;2023-08-24T04:09:51;101420.16;;;20.10;45.97
30073;BME280;16897;52.422;13.678;2023-08-24T04:18:12;101423.91;;;20.08;45.97
30073;BME280;16897;52.422;13.678;2023-08-24T04:22:14;101424.19;;;20.05;46.10
30073;BME280;16897;52.422;13.678;2023-08-24T04:26:16;101425.59;;;20.09;46.20
30073;BME280;16897;52.422;13.678;2023-08-24T04:30:17;101428.50;;;20.06;46.28
30073;BME280;16897;52.422;13.678;2023-08-24T04:34:19;101419.13;;;20.02;46.47
30073;BME280;16897;52.422;13.678;2023-08-24T04:38:20;101434.25;;;20.11;46.19
30073;BME280;16897;52.422;13.678;2023-08-24T04:42:22;101418.88;;;20.05;46.52
30073;BME280;16897;52.422;13.678;2023-08-24T04:46:23;101413.56;;;20.05;46.55
30073;BME280;16897;52.422;13.678;2023-08-24T04:50:25;101414.41;;;20.05;46.36
30073;BME280;16897;52.422;13.678;2023-08-24T04:54:27;101428.47;;;20.17;46.33
30073;BME280;16897;52.422;13.678;2023-08-24T04:58:28;101434.34;;;20.21;46.82
30073;BME280;16897;52.422;13.678;2023-08-24T05:02:29;101411.38;;;20.10;46.87
30073;BME280;16897;52.422;13.678;2023-08-24T05:06:31;101410.28;;;20.13;46.94
30073;BME280;16897;52.422;13.678;2023-08-24T05:10:33;101443.19;;;20.31;46.73
30073;BME280;16897;52.422;13.678;2023-08-24T05:14:35;101437.91;;;20.31;46.66
30073;BME280;16897;52.422;13.678;2023-08-24T05:18:36;101440.84;;;20.38;46.96
30073;BME280;16897;52.422;13.678;2023-08-24T05:22:38;101437.34;;;20.37;47.08
30073;BME280;16897;52.422;13.678;2023-08-24T05:26:40;101440.31;;;20.44;47.16
30073;BME280;16897;52.422;13.678;2023-08-24T05:30:42;101445.97;;;20.50;46.72
30073;BME280;16897;52.422;13.678;2023-08-24T05:34:45;101435.34;;;20.50;46.99
30073;BME280;16897;52.422;13.678;2023-08-24T05:38:47;101440.97;;;20.57;47.20
30073;BME280;16897;52.422;13.678;2023-08-24T05:42:48;101441.69;;;20.59;47.24
30073;BME280;16897;52.422;13.678;2023-08-24T05:46:50;101425.22;;;20.55;47.18
30073;BME280;16897;52.422;13.678;2023-08-24T05:50:51;101435.00;;;20.65;47.14
30073;BME280;16897;52.422;13.678;2023-08-24T05:54:53;101435.72;;;20.67;47.44
30073;BME280;16897;52.422;13.678;2023-08-24T05:58:56;101444.69;;;20.75;47.11
30073;BME280;16897;52.422;13.678;2023-08-24T06:02:58;101434.66;;;20.79;47.41
30073;BME280;16897;52.422;13.678;2023-08-24T06:07:00;101442.00;;;20.96;47.42
30073;BME280;16897;52.422;13.678;2023-08-24T06:11:01;101414.44;;;20.97;47.46
30073;BME280;16897;52.422;13.678;2023-08-24T06:15:04;101432.56;;;21.23;47.89
30073;BME280;16897;52.422;13.678;2023-08-24T06:19:06;101426.88;;;21.37;47.43
30073;BME280;16897;52.422;13.678;2023-08-24T06:23:07;101438.22;;;21.59;47.81
30073;BME280;16897;52.422;13.678;2023-08-24T06:27:09;101420.03;;;21.64;47.36
30073;BME280;16897;52.422;13.678;2023-08-24T06:31:10;101435.00;;;21.84;47.52
30073;BME280;16897;52.422;13.678;2023-08-24T06:35:12;101420.44;;;21.88;47.59
30073;BME280;16897;52.422;13.678;2023-08-24T06:39:17;101422.66;;;22.03;47.59
30073;BME280;16897;52.422;13.678;2023-08-24T06:43:18;101407.00;;;22.09;47.89
30073;BME280;16897;52.422;13.678;2023-08-24T06:47:20;101429.25;;;22.28;47.94
30073;BME280;16897;52.422;13.678;2023-08-24T06:51:22;101427.66;;;22.35;47.59
30073;BME280;16897;52.422;13.678;2023-08-24T06:55:23;101424.84;;;22.46;47.97
30073;BME280;16897;52.422;13.678;2023-08-24T06:59:25;101437.00;;;22.59;47.98
30073;BME280;16897;52.422;13.678;2023-08-24T07:03:27;101443.44;;;22.66;47.63
30073;BME280;16897;52.422;13.678;2023-08-24T07:07:28;101449.25;;;22.79;47.69
30073;BME280;16897;52.422;13.678;2023-08-24T07:11:30;101442.22;;;22.88;47.86
30073;BME280;16897;52.422;13.678;2023-08-24T07:15:31;101447.19;;;23.01;47.55
30073;BME280;16897;52.422;13.678;2023-08-24T07:19:35;101447.19;;;23.01;47.49
30073;BME280;16897;52.422;13.678;2023-08-24T07:23:37;101451.06;;;23.16;47.79
30073;BME280;16897;52.422;13.678;2023-08-24T07:27:38;101449.19;;;23.26;47.45
30073;BME280;16897;52.422;13.678;2023-08-24T07:31:40;101458.72;;;23.47;47.85
30073;BME280;16897;52.422;13.678;2023-08-24T07:35:41;101446.00;;;23.58;47.61
30073;BME280;16897;52.422;13.678;2023-08-24T07:39:43;101438.31;;;23.73;48.17
30073;BME280;16897;52.422;13.678;2023-08-24T07:43:44;101427.78;;;23.90;48.05
30073;BME280;16897;52.422;13.678;2023-08-24T07:47:46;101439.97;;;24.10;48.14
30073;BME280;16897;52.422;13.678;2023-08-24T07:51:47;101422.19;;;24.19;48.16
30073;BME280;16897;52.422;13.678;2023-08-24T07:55:48;101410.06;;;24.33;48.09
30073;BME280;16897;52.422;13.678;2023-08-24T07:59:50;101445.06;;;24.73;47.92
30073;BME280;16897;52.422;13.678;2023-08-24T08:03:51;101419.72;;;24.86;48.25
30073;BME280;16897;52.422;13.678;2023-08-24T08:07:52;101445.59;;;25.20;47.92
30073;BME280;16897;52.422;13.678;2023-08-24T08:11:54;101427.56;;;25.30;47.78
30073;BME280;16897;52.422;13.678;2023-08-24T08:16:03;101440.00;;;25.64;48.24
30073;BME280;16897;52.422;13.678;2023-08-24T08:20:06;101432.13;;;25.78;47.77
30073;BME280;16897;52.422;13.678;2023-08-24T08:24:07;101435.00;;;26.01;48.06
30073;BME280;16897;52.422;13.678;2023-08-24T08:28:09;101439.16;;;26.20;48.10
30073;BME280;16897;52.422;13.678;2023-08-24T08:32:11;101447.00;;;26.38;47.91
30073;BME280;16897;52.422;13.678;2023-08-24T08:36:13;101435.94;;;26.49;47.73
30073;BME280;16897;52.422;13.678;2023-08-24T08:40:16;101424.19;;;26.59;47.57
30073;BME280;16897;52.422;13.678;2023-08-24T08:44:18;101409.09;;;26.66;47.38
30073;BME280;16897;52.422;13.678;2023-08-24T08:48:20;101416.75;;;26.77;47.49
30073;BME280;16897;52.422;13.678;2023-08-24T08:52:22;101406.50;;;26.81;47.67
30073;BME280;16897;52.422;13.678;2023-08-24T08:56:26;101399.25;;;26.89;47.07
30073;BME280;16897;52.422;13.678;2023-08-24T09:00:28;101405.97;;;26.93;47.13
30073;BME280;16897;52.422;13.678;2023-08-24T09:04:32;101397.56;;;26.97;47.13
30073;BME280;16897;52.422;13.678;2023-08-24T09:08:33;101404.06;;;27.02;46.91
30073;BME280;16897;52.422;13.678;2023-08-24T09:12:35;101386.31;;;27.01;47.11
30073;BME280;16897;52.422;13.678;2023-08-24T09:16:37;101391.31;;;27.04;47.00
30073;BME280;16897;52.422;13.678;2023-08-24T09:20:38;101388.75;;;27.11;46.76
30073;BME280;16897;52.422;13.678;2023-08-24T09:24:40;101387.56;;;27.13;46.75
30073;BME280;16897;52.422;13.678;2023-08-24T09:28:44;101383.56;;;27.18;46.54
30073;BME280;16897;52.422;13.678;2023-08-24T09:32:46;101373.66;;;27.18;46.36
30073;BME280;16897;52.422;13.678;2023-08-24T09:36:48;101378.16;;;27.26;46.67
30073;BME280;16897;52.422;13.678;2023-08-24T09:40:56;101368.91;;;27.28;46.51
30073;BME280;16897;52.422;13.678;2023-08-24T09:45:03;101356.50;;;27.27;46.41
30073;BME280;16897;52.422;13.678;2023-08-24T09:49:06;101368.66;;;27.38;46.44
30073;BME280;16897;52.422;13.678;2023-08-24T09:53:08;101357.75;;;27.40;46.49
30073;BME280;16897;52.422;13.678;2023-08-24T09:57:13;101348.69;;;27.41;46.35
30073;BME280;16897;52.422;13.678;2023-08-24T10:01:16;101349.28;;;27.51;46.42
30073;BME280;16897;52.422;13.678;2023-08-24T10:05:24;101352.09;;;27.57;45.97
30073;BME280;16897;52.422;13.678;2023-08-24T10:09:31;101347.47;;;27.66;46.52
30073;BME280;16897;52.422;13.678;2023-08-24T10:13:40;101342.13;;;27.81;46.53
30073;BME280;16897;52.422;13.678;2023-08-24T10:17:42;101350.41;;;27.94;46.18
30073;BME280;16897;52.422;13.678;2023-08-24T10:21:45;101330.69;;;28.02;46.12
30073;BME280;16897;52.422;13.678;2023-08-24T10:25:47;101328.34;;;28.14;46.16
30073;BME280;16897;52.422;13.678;2023-08-24T10:29:52;101334.41;;;28.31;46.07
30073;BME280;16897;52.422;13.678;2023-08-24T10:33:53;101337.44;;;28.42;45.86
30073;BME280;16897;52.422;13.678;2023-08-24T10:38:00;101318.28;;;28.45;46.06
30073;BME280;16897;52.422;13.678;2023-08-24T10:42:02;101332.59;;;28.67;45.78
30073;BME280;16897;52.422;13.678;2023-08-24T10:46:05;101323.41;;;28.77;45.48
30073;BME280;16897;52.422;13.678;2023-08-24T10:50:12;101328.47;;;28.86;45.53
30073;BME280;16897;52.422;13.678;2023-08-24T10:54:15;101335.00;;;28.99;45.72
30073;BME280;16897;52.422;13.678;2023-08-24T10:58:16;101331.84;;;29.10;45.70
30073;BME280;16897;52.422;13.678;2023-08-24T11:02:19;101321.78;;;29.19;45.21
30073;BME280;16897;52.422;13.678;2023-08-24T11:06:22;101325.63;;;29.31;45.51
30073;BME280;16897;52.422;13.678;2023-08-24T11:10:24;101331.94;;;29.45;45.30
30073;BME280;16897;52.422;13.678;2023-08-24T11:14:26;101317.97;;;29.56;45.08
30073;BME280;16897;52.422;13.678;2023-08-24T11:18:28;101310.22;;;29.68;44.78
30073;BME280;16897;52.422;13.678;2023-08-24T11:22:31;101272.53;;;29.68;44.84
30073;BME280;16897;52.422;13.678;2023-08-24T11:26:34;101278.03;;;29.88;44.93
30073;BME280;16897;52.422;13.678;2023-08-24T11:30:36;101269.78;;;29.96;44.84
30073;BME280;16897;52.422;13.678;2023-08-24T11:34:38;101278.13;;;30.08;44.59
30073;BME280;16897;52.422;13.678;2023-08-24T11:38:41;101270.72;;;30.16;44.80
30073;BME280;16897;52.422;13.678;2023-08-24T11:42:43;101262.50;;;30.25;44.48
30073;BME280;16897;52.422;13.678;2023-08-24T11:46:45;101254.66;;;30.36;44.54
30073;BME280;16897;52.422;13.678;2023-08-24T11:50:46;101235.59;;;30.45;44.58
30073;BME280;16897;52.422;13.678;2023-08-24T11:54:51;101238.50;;;30.56;44.50
30073;BME280;16897;52.422;13.678;2023-08-24T11:58:53;101217.56;;;30.58;44.38
30073;BME280;16897;52.422;13.678;2023-08-24T12:02:54;101207.41;;;30.67;44.15
30073;BME280;16897;52.422;13.678;2023-08-24T12:06:56;101203.91;;;30.67;43.76
30073;BME280;16897;52.422;13.678;2023-08-24T12:10:58;101229.25;;;30.85;44.22
30073;BME280;16897;52.422;13.678;2023-08-24T12:15:00;101209.56;;;30.85;44.03
30073;BME280;16897;52.422;13.678;2023-08-24T12:19:07;101209.97;;;30.95;43.75
30073;BME280;16897;52.422;13.678;2023-08-24T12:23:10;101227.19;;;31.07;44.00
30073;BME280;16897;52.422;13.678;2023-08-24T12:27:19;101220.13;;;31.13;43.51
30073;BME280;16897;52.422;13.678;2023-08-24T12:31:25;101224.47;;;31.21;43.60
30073;BME280;16897;52.422;13.678;2023-08-24T12:35:28;101193.75;;;31.15;43.51
30073;BME280;16897;52.422;13.678;2023-08-24T12:39:35;101191.28;;;31.20;43.51
30073;BME280;16897;52.422;13.678;2023-08-24T12:43:37;101186.69;;;31.27;43.35
30073;BME280;16897;52.422;13.678;2023-08-24T12:47:40;101191.25;;;31.34;43.03
30073;BME280;16897;52.422;13.678;2023-08-24T12:51:41;101190.84;;;31.37;43.40
30073;BME280;16897;52.422;13.678;2023-08-24T12:55:43;101154.94;;;31.23;43.28
30073;BME280;16897;52.422;13.678;2023-08-24T12:59:45;101160.72;;;31.40;43.07
30073;BME280;16897;52.422;13.678;2023-08-24T13:03:48;101164.69;;;31.44;43.09
30073;BME280;16897;52.422;13.678;2023-08-24T13:07:49;101158.03;;;31.46;43.07
30073;BME280;16897;52.422;13.678;2023-08-24T13:11:52;101144.09;;;31.49;42.54
30073;BME280;16897;52.422;13.678;2023-08-24T13:15:54;101139.09;;;31.53;42.68
30073;BME280;16897;52.422;13.678;2023-08-24T13:19:55;101132.25;;;31.57;42.42
30073;BME280;16897;52.422;13.678;2023-08-24T13:23:57;101112.72;;;31.55;42.60
30073;BME280;16897;52.422;13.678;2023-08-24T13:27:59;101101.28;;;31.60;42.75
30073;BME280;16897;52.422;13.678;2023-08-24T13:32:00;101112.22;;;31.71;42.63
30073;BME280;16897;52.422;13.678;2023-08-24T13:36:02;101103.91;;;31.73;42.55
30073;BME280;16897;52.422;13.678;2023-08-24T13:40:04;101105.97;;;31.78;42.30
30073;BME280;16897;52.422;13.678;2023-08-24T13:44:06;101093.28;;;31.78;42.16
30073;BME280;16897;52.422;13.678;2023-08-24T13:48:07;101074.59;;;31.77;41.96
30073;BME280;16897;52.422;13.678;2023-08-24T13:52:09;101069.75;;;31.85;42.23
30073;BME280;16897;52.422;13.678;2023-08-24T13:56:10;101056.91;;;31.81;41.82
30073;BME280;16897;52.422;13.678;2023-08-24T14:00:12;101063.09;;;31.88;42.09
30073;BME280;16897;52.422;13.678;2023-08-24T14:04:14;101068.06;;;31.91;41.78
30073;BME280;16897;52.422;13.678;2023-08-24T14:08:15;101056.84;;;31.94;42.00
30073;BME280;16897;52.422;13.678;2023-08-24T14:12:17;101045.22;;;31.93;41.46
30073;BME280;16897;52.422;13.678;2023-08-24T14:16:19;101024.66;;;31.92;41.64
30073;BME280;16897;52.422;13.678;2023-08-24T14:20:20;101026.03;;;32.02;41.56
30073;BME280;16897;52.422;13.678;2023-08-24T14:24:22;101025.59;;;32.05;41.29
30073;BME280;16897;52.422;13.678;2023-08-24T14:28:24;101031.81;;;32.05;41.24
30073;BME280;16897;52.422;13.678;2023-08-24T14:32:25;101024.16;;;32.02;41.04
30073;BME280;16897;52.422;13.678;2023-08-24T14:36:28;101015.47;;;32.00;41.22
30073;BME280;16897;52.422;13.678;2023-08-24T14:40:30;101016.88;;;32.03;40.95
30073;BME280;16897;52.422;13.678;2023-08-24T14:44:32;101012.91;;;32.05;41.00
30073;BME280;16897;52.422;13.678;2023-08-24T14:48:35;101028.09;;;32.06;41.01
30073;BME280;16897;52.422;13.678;2023-08-24T14:52:36;101029.75;;;32.07;41.04
30073;BME280;16897;52.422;13.678;2023-08-24T14:56:39;101044.94;;;32.08;41.01
30073;BME280;16897;52.422;13.678;2023-08-24T15:00:40;101053.03;;;32.08;41.13
30073;BME280;16897;52.422;13.678;2023-08-24T15:04:42;101057.38;;;32.09;40.91
30073;BME280;16897;52.422;13.678;2023-08-24T15:08:43;101047.22;;;32.05;40.88
30073;BME280;16897;52.422;13.678;2023-08-24T15:12:45;101053.84;;;32.09;40.48
30073;BME280;16897;52.422;13.678;2023-08-24T15:16:47;101046.59;;;32.03;40.63
30073;BME280;16897;52.422;13.678;2023-08-24T15:20:49;101056.72;;;32.14;41.11
30073;BME280;16897;52.422;13.678;2023-08-24T15:24:50;101047.34;;;32.16;40.47
30073;BME280;16897;52.422;13.678;2023-08-24T15:33:10;101053.34;;;32.18;40.33
30073;BME280;16897;52.422;13.678;2023-08-24T15:37:12;101040.69;;;32.19;40.17
30073;BME280;16897;52.422;13.678;2023-08-24T15:41:13;101035.50;;;32.17;40.44
30073;BME280;16897;52.422;13.678;2023-08-24T15:45:15;101026.72;;;32.22;40.38
30073;BME280;16897;52.422;13.678;2023-08-24T15:49:17;101003.25;;;32.16;40.49
30073;BME280;16897;52.422;13.678;2023-08-24T15:53:18;101007.56;;;32.24;40.34
30073;BME280;16897;52.422;13.678;2023-08-24T15:57:20;101002.16;;;32.24;40.05
30073;BME280;16897;52.422;13.678;2023-08-24T16:01:22;100949.41;;;31.96;40.28
30073;BME280;16897;52.422;13.678;2023-08-24T16:05:24;100986.63;;;32.19;40.19
30073;BME280;16897;52.422;13.678;2023-08-24T16:09:25;100995.13;;;32.23;39.91
30073;BME280;16897;52.422;13.678;2023-08-24T16:13:27;100994.94;;;32.17;40.01
30073;BME280;16897;52.422;13.678;2023-08-24T16:17:29;100987.91;;;32.16;39.86
30073;BME280;16897;52.422;13.678;2023-08-24T16:21:31;100983.16;;;32.12;40.23
30073;BME280;16897;52.422;13.678;2023-08-24T16:25:33;100990.81;;;32.15;39.69
30073;BME280;16897;52.422;13.678;2023-08-24T16:29:35;100969.03;;;32.10;39.93
30073;BME280;16897;52.422;13.678;2023-08-24T16:33:36;100975.41;;;32.15;39.98
30073;BME280;16897;52.422;13.678;2023-08-24T16:37:38;100974.81;;;32.13;39.70
30073;BME280;16897;52.422;13.678;2023-08-24T16:41:39;100970.91;;;32.09;39.82
30073;BME280;16897;52.422;13.678;2023-08-24T16:45:41;100951.38;;;32.07;39.97
30073;BME280;16897;52.422;13.678;2023-08-24T16:49:43;100953.53;;;31.99;39.77
30073;BME280;16897;52.422;13.678;2023-08-24T16:53:45;100951.72;;;31.92;39.55
30073;BME280;16897;52.422;13.678;2023-08-24T16:57:46;100946.84;;;31.76;39.91
30073;BME280;16897;52.422;13.678;2023-08-24T17:01:49;100941.13;;;31.59;39.66
30073;BME280;16897;52.422;13.678;2023-08-24T17:05:50;100951.59;;;31.49;39.81
30073;BME280;16897;52.422;13.678;2023-08-24T17:09:52;100967.56;;;31.50;39.58
30073;BME280;16897;52.422;13.678;2023-08-24T17:13:53;100959.50;;;31.44;40.00
30073;BME280;16897;52.422;13.678;2023-08-24T17:17:56;100953.34;;;31.30;39.92
30073;BME280;16897;52.422;13.678;2023-08-24T17:21:58;100946.53;;;31.21;40.08
30073;BME280;16897;52.422;13.678;2023-08-24T17:26:00;100968.75;;;31.16;40.05
30073;BME280;16897;52.422;13.678;2023-08-24T17:30:03;100952.22;;;31.06;39.81
30073;BME280;16897;52.422;13.678;2023-08-24T17:34:04;100957.19;;;31.02;39.89
30073;BME280;16897;52.422;13.678;2023-08-24T17:38:06;100950.59;;;30.92;39.85
30073;BME280;16897;52.422;13.678;2023-08-24T17:42:08;100945.66;;;30.82;40.21
30073;BME280;16897;52.422;13.678;2023-08-24T17:46:10;100927.81;;;30.68;40.18
30073;BME280;16897;52.422;13.678;2023-08-24T17:50:11;100928.50;;;30.56;40.23
30073;BME280;16897;52.422;13.678;2023-08-24T17:54:13;100907.00;;;30.36;39.88
30073;BME280;16897;52.422;13.678;2023-08-24T17:58:14;100925.66;;;30.31;40.22
30073;BME280;16897;52.422;13.678;2023-08-24T18:02:16;100933.72;;;30.18;40.31
30073;BME280;16897;52.422;13.678;2023-08-24T18:06:17;100916.94;;;30.03;39.93
30073;BME280;16897;52.422;13.678;2023-08-24T18:10:19;100924.00;;;29.97;40.30
30073;BME280;16897;52.422;13.678;2023-08-24T18:14:20;100942.03;;;29.90;40.02
30073;BME280;16897;52.422;13.678;2023-08-24T18:18:22;100934.97;;;29.82;40.25
30073;BME280;16897;52.422;13.678;2023-08-24T18:22:23;100939.53;;;29.75;40.51
30073;BME280;16897;52.422;13.678;2023-08-24T18:26:25;100934.75;;;29.64;40.49
30073;BME280;16897;52.422;13.678;2023-08-24T18:30:27;100925.78;;;29.56;40.45
30073;BME280;16897;52.422;13.678;2023-08-24T18:34:28;100915.00;;;29.43;40.22
30073;BME280;16897;52.422;13.678;2023-08-24T18:38:30;100923.91;;;29.37;40.39
30073;BME280;16897;52.422;13.678;2023-08-24T18:42:32;100914.16;;;29.23;40.07
30073;BME280;16897;52.422;13.678;2023-08-24T18:46:34;100911.66;;;29.15;40.57
30073;BME280;16897;52.422;13.678;2023-08-24T18:50:35;100904.53;;;29.00;40.70
30073;BME280;16897;52.422;13.678;2023-08-24T18:54:37;100897.47;;;28.93;40.38
30073;BME280;16897;52.422;13.678;2023-08-24T18:58:38;100903.88;;;28.85;40.15
30073;BME280;16897;52.422;13.678;2023-08-24T19:02:40;100902.56;;;28.74;40.33
30073;BME280;16897;52.422;13.678;2023-08-24T19:06:41;100895.50;;;28.66;40.68
30073;BME280;16897;52.422;13.678;2023-08-24T19:10:42;100875.38;;;28.49;40.39
30073;BME280;16897;52.422;13.678;2023-08-24T19:14:45;100877.34;;;28.40;40.69
30073;BME280;16897;52.422;13.678;2023-08-24T19:18:46;100853.72;;;28.22;40.53
30073;BME280;16897;52.422;13.678;2023-08-24T19:22:48;100848.50;;;28.14;40.53
30073;BME280;16897;52.422;13.678;2023-08-24T19:26:50;100847.19;;;28.04;40.63
30073;BME280;16897;52.422;13.678;2023-08-24T19:30:52;100851.44;;;27.91;40.55
30073;BME280;16897;52.422;13.678;2023-08-24T19:34:55;100858.41;;;27.86;40.85
30073;BME280;16897;52.422;13.678;2023-08-24T19:38:57;100860.84;;;27.80;41.11
30073;BME280;16897;52.422;13.678;2023-08-24T19:42:59;100860.31;;;27.70;40.56
30073;BME280;16897;52.422;13.678;2023-08-24T19:47:00;100857.84;;;27.69;41.09
30073;BME280;16897;52.422;13.678;2023-08-24T19:51:02;100836.69;;;27.59;40.91
30073;BME280;16897;52.422;13.678;2023-08-24T19:55:03;100796.94;;;27.41;40.71
30073;BME280;16897;52.422;13.678;2023-08-24T19:59:05;100814.44;;;27.37;41.15
30073;BME280;16897;52.422;13.678;2023-08-24T20:03:08;100810.16;;;27.21;40.92
30073;BME280;16897;52.422;13.678;2023-08-24T20:07:11;100821.28;;;27.18;40.92
30073;BME280;16897;52.422;13.678;2023-08-24T20:11:13;100801.50;;;27.04;40.99
30073;BME280;16897;52.422;13.678;2023-08-24T20:15:15;100797.47;;;26.93;41.29
30073;BME280;16897;52.422;13.678;2023-08-24T20:19:17;100799.13;;;26.95;41.29
30073;BME280;16897;52.422;13.678;2023-08-24T20:23:18;100791.22;;;26.86;41.22
30073;BME280;16897;52.422;13.678;2023-08-24T20:27:20;100812.03;;;26.84;41.21
30073;BME280;16897;52.422;13.678;2023-08-24T20:31:21;100775.97;;;26.65;41.27
30073;BME280;16897;52.422;13.678;2023-08-24T20:35:23;100787.28;;;26.67;41.57
30073;BME280;16897;52.422;13.678;2023-08-24T20:39:25;100795.16;;;26.69;41.45
30073;BME280;16897;52.422;13.678;2023-08-24T20:43:27;100783.34;;;26.63;41.45
30073;BME280;16897;52.422;13.678;2023-08-24T20:47:28;100770.50;;;26.59;41.26
30073;BME280;16897;52.422;13.678;2023-08-24T20:51:30;100756.19;;;26.52;41.62
30073;BME280;16897;52.422;13.678;2023-08-24T20:55:32;100751.78;;;26.44;41.54
30073;BME280;16897;52.422;13.678;2023-08-24T20:59:34;100717.09;;;26.21;41.44
30073;BME280;16897;52.422;13.678;2023-08-24T21:03:35;100726.03;;;26.28;41.47